Back to Top

Language: 

My Weather Underground Personal Weather Station Historical Data with Graphs...

Delerius Weather Station Historical Data
Daily Summary for June 29, 2017 Units:  English    Metric   Both
« Previous Day
Next Day »
Daily Weekly Monthly Yearly Custom
  High: Low: Average:
Temperature: 60.3 °F 50.5 °F 55.4 °F
Dew Point: 57.3 °F 49.4 °F 53.7 °F
Humidity: 97 % 88 % 94 %
Wind Speed: 10.0 mph 0.0 mph 5.2 mph
Wind Gust: 20.0 mph - -
Wind:- - NW
Pressure: 29.47 in 29.31 in -
Precipitation: 0.31 in    
Historical Graphs
 
 
Tabular Data for June 29, 2017
Time Temperature Dew Point Pressure Wind Wind Speed Wind Gust Humidity Rainfall Rate (Hourly) solar Conditions
00:02 50.5 °F 49.4 °F 29.40 in NW 7.0 mph 15.0 mph 96 % 0.02 in 0 W/m2
00:07 50.5 °F 49.4 °F 29.39 in NW 7.0 mph 15.0 mph 96 % 0.02 in 0 W/m2
00:12 50.5 °F 49.4 °F 29.39 in NW 9.0 mph 19.0 mph 96 % 0.02 in 0 W/m2
00:16 50.5 °F 49.4 °F 29.39 in NW 8.0 mph 19.0 mph 96 % 0.02 in 0 W/m2
00:21 50.5 °F 49.4 °F 29.39 in NW 8.0 mph 16.0 mph 96 % 0.02 in 0 W/m2
00:26 50.5 °F 49.4 °F 29.39 in NW 8.0 mph 16.0 mph 96 % 0.02 in 0 W/m2
00:31 50.5 °F 49.4 °F 29.39 in NW 8.0 mph 14.0 mph 96 % 0.02 in 0 W/m2
00:36 50.5 °F 49.4 °F 29.39 in NW 8.0 mph 14.0 mph 96 % 0.02 in 0 W/m2
00:41 50.5 °F 49.4 °F 29.38 in NW 7.0 mph 14.0 mph 96 % 0.02 in 0 W/m2
00:46 50.5 °F 49.4 °F 29.38 in NW 7.0 mph 18.0 mph 96 % 0.03 in 0 W/m2
00:51 50.5 °F 49.4 °F 29.38 in NW 7.0 mph 18.0 mph 96 % 0.02 in 0 W/m2
00:56 50.5 °F 49.4 °F 29.38 in NW 7.0 mph 14.0 mph 96 % 0.03 in 0 W/m2
01:01 50.5 °F 49.4 °F 29.38 in NW 8.0 mph 20.0 mph 96 % 0.03 in 0 W/m2
01:06 50.7 °F 49.9 °F 29.38 in NW 9.0 mph 20.0 mph 97 % 0.03 in 0 W/m2
01:11 50.7 °F 49.9 °F 29.38 in NW 10.0 mph 20.0 mph 97 % 0.04 in 0 W/m2
01:16 50.7 °F 49.9 °F 29.38 in NW 10.0 mph 19.0 mph 97 % 0.03 in 0 W/m2
01:21 50.7 °F 49.9 °F 29.37 in NW 8.0 mph 18.0 mph 97 % 0.04 in 0 W/m2
01:26 50.7 °F 49.9 °F 29.37 in NW 7.0 mph 16.0 mph 97 % 0.06 in 0 W/m2
01:31 50.7 °F 49.9 °F 29.37 in NW 8.0 mph 16.0 mph 97 % 0.06 in 0 W/m2
01:36 50.7 °F 49.9 °F 29.37 in NW 8.0 mph 16.0 mph 97 % 0.06 in 0 W/m2
01:41 50.7 °F 49.9 °F 29.37 in NW 8.0 mph 14.0 mph 97 % 0.07 in 0 W/m2
01:46 50.7 °F 49.9 °F 29.37 in NW 8.0 mph 14.0 mph 97 % 0.07 in 0 W/m2
01:51 50.7 °F 49.9 °F 29.36 in NW 8.0 mph 19.0 mph 97 % 0.08 in 0 W/m2
01:56 50.7 °F 49.9 °F 29.36 in NW 8.0 mph 19.0 mph 97 % 0.08 in 0 W/m2
02:01 50.7 °F 49.9 °F 29.36 in NW 7.0 mph 19.0 mph 97 % 0.08 in 0 W/m2
02:06 50.7 °F 49.9 °F 29.36 in NW 7.0 mph 15.0 mph 97 % 0.09 in 0 W/m2
02:11 50.9 °F 50.1 °F 29.36 in NW 8.0 mph 16.0 mph 97 % 0.08 in 0 W/m2
02:16 50.9 °F 50.1 °F 29.35 in NW 8.0 mph 16.0 mph 97 % 0.09 in 0 W/m2
02:21 51.1 °F 50.3 °F 29.35 in NW 8.0 mph 20.0 mph 97 % 0.08 in 0 W/m2
02:26 51.1 °F 50.3 °F 29.35 in NW 8.0 mph 20.0 mph 97 % 0.07 in 0 W/m2
02:31 51.1 °F 50.3 °F 29.35 in NW 9.0 mph 15.0 mph 97 % 0.07 in 0 W/m2
02:36 51.1 °F 50.3 °F 29.35 in NW 8.0 mph 15.0 mph 97 % 0.06 in 0 W/m2
02:41 51.3 °F 50.4 °F 29.35 in NW 8.0 mph 15.0 mph 97 % 0.05 in 0 W/m2
02:46 51.3 °F 50.4 °F 29.35 in NW 7.0 mph 15.0 mph 97 % 0.06 in 0 W/m2
02:51 51.3 °F 50.4 °F 29.35 in NW 7.0 mph 13.0 mph 97 % 0.05 in 0 W/m2
02:56 51.3 °F 50.4 °F 29.34 in NW 8.0 mph 16.0 mph 97 % 0.05 in 0 W/m2
03:01 51.3 °F 50.4 °F 29.34 in WNW 8.0 mph 16.0 mph 97 % 0.05 in 0 W/m2
03:06 51.4 °F 50.6 °F 29.34 in NW 8.0 mph 15.0 mph 97 % 0.05 in 0 W/m2
03:11 51.4 °F 50.6 °F 29.34 in NW 8.0 mph 16.0 mph 97 % 0.04 in 0 W/m2
03:16 51.4 °F 50.6 °F 29.34 in NW 8.0 mph 18.0 mph 97 % 0.05 in 0 W/m2
03:21 51.4 °F 50.6 °F 29.34 in WNW 8.0 mph 18.0 mph 97 % 0.05 in 0 W/m2
03:26 51.4 °F 50.6 °F 29.34 in WNW 8.0 mph 16.0 mph 97 % 0.05 in 0 W/m2
03:31 51.6 °F 50.8 °F 29.34 in WNW 8.0 mph 18.0 mph 97 % 0.05 in 0 W/m2
03:36 51.6 °F 50.8 °F 29.33 in NW 8.0 mph 18.0 mph 97 % 0.06 in 0 W/m2
03:41 51.6 °F 50.8 °F 29.33 in WNW 8.0 mph 15.0 mph 97 % 0.06 in 0 W/m2
03:46 51.6 °F 50.8 °F 29.33 in WNW 7.0 mph 15.0 mph 97 % 0.06 in 0 W/m2
03:52 51.6 °F 50.8 °F 29.33 in NW 7.0 mph 12.0 mph 97 % 0.05 in 0 W/m2
03:57 51.8 °F 51.0 °F 29.33 in NW 8.0 mph 13.0 mph 97 % 0.06 in 0 W/m2
04:02 51.8 °F 51.0 °F 29.33 in NW 7.0 mph 13.0 mph 97 % 0.06 in 0 W/m2
04:07 52.0 °F 51.2 °F 29.33 in NW 8.0 mph 14.0 mph 97 % 0.06 in 0 W/m2
04:12 52.0 °F 51.2 °F 29.33 in NW 9.0 mph 16.0 mph 97 % 0.06 in 0 W/m2
04:17 52.0 °F 51.2 °F 29.32 in NW 8.0 mph 16.0 mph 97 % 0.05 in 0 W/m2
04:22 52.0 °F 51.2 °F 29.32 in NW 8.0 mph 18.0 mph 97 % 0.04 in 0 W/m2
04:27 52.0 °F 51.2 °F 29.32 in NW 9.0 mph 18.0 mph 97 % 0.05 in 0 W/m2
04:32 52.0 °F 51.2 °F 29.32 in NW 9.0 mph 20.0 mph 97 % 0.04 in 0 W/m2
04:37 52.0 °F 51.2 °F 29.32 in NNW 9.0 mph 20.0 mph 97 % 0.03 in 0 W/m2
04:42 52.0 °F 51.2 °F 29.32 in NNW 8.0 mph 15.0 mph 97 % 0.04 in 0 W/m2
04:45 52.0 °F 51.2 °F 29.32 in NW 7.0 mph 14.0 mph 97 % 0.03 in 0 W/m2
04:50 52.0 °F 51.2 °F 29.32 in NW 7.0 mph 13.0 mph 97 % 0.03 in 0 W/m2
04:55 52.0 °F 51.2 °F 29.32 in NW 7.0 mph 13.0 mph 97 % 0.02 in 0 W/m2
05:00 52.0 °F 51.2 °F 29.32 in NW 7.0 mph 12.0 mph 97 % 0.02 in 0 W/m2
05:05 52.0 °F 51.2 °F 29.32 in NNW 7.0 mph 15.0 mph 97 % 0.02 in 0 W/m2
05:10 52.0 °F 51.2 °F 29.32 in NW 7.0 mph 15.0 mph 97 % 0.02 in 0 W/m2
05:15 52.0 °F 51.2 °F 29.32 in NW 7.0 mph 16.0 mph 97 % 0.02 in 0 W/m2
05:20 52.0 °F 51.2 °F 29.32 in NW 8.0 mph 16.0 mph 97 % 0.03 in 0 W/m2
05:25 52.0 °F 51.2 °F 29.32 in NW 7.0 mph 13.0 mph 97 % 0.02 in 0 W/m2
05:30 52.0 °F 51.2 °F 29.32 in NW 6.0 mph 12.0 mph 97 % 0.02 in 0 W/m2
05:35 52.0 °F 51.2 °F 29.32 in NW 7.0 mph 16.0 mph 97 % 0.02 in 0 W/m2
05:40 52.0 °F 51.2 °F 29.32 in NW 8.0 mph 16.0 mph 97 % 0.02 in 0 W/m2
05:45 52.0 °F 51.2 °F 29.32 in NW 8.0 mph 16.0 mph 97 % 0.02 in 0 W/m2
05:51 52.0 °F 51.2 °F 29.32 in NW 7.0 mph 16.0 mph 97 % 0.03 in 0 W/m2
05:56 52.0 °F 51.2 °F 29.32 in NW 7.0 mph 15.0 mph 97 % 0.03 in 0 W/m2
06:01 52.0 °F 51.2 °F 29.32 in NW 7.0 mph 14.0 mph 97 % 0.03 in 0 W/m2
06:06 51.8 °F 51.0 °F 29.32 in NW 7.0 mph 13.0 mph 97 % 0.03 in 5 W/m2
06:11 51.8 °F 51.0 °F 29.32 in NW 8.0 mph 18.0 mph 97 % 0.03 in 7 W/m2
06:16 51.8 °F 51.0 °F 29.32 in NW 8.0 mph 18.0 mph 97 % 0.03 in 11 W/m2
06:21 51.8 °F 51.0 °F 29.32 in NW 7.0 mph 14.0 mph 97 % 0.02 in 16 W/m2
06:26 51.6 °F 50.8 °F 29.31 in NW 8.0 mph 14.0 mph 97 % 0.02 in 23 W/m2
06:31 51.6 °F 50.8 °F 29.32 in NW 8.0 mph 13.0 mph 97 % 0.02 in 19 W/m2
06:36 51.8 °F 51.0 °F 29.31 in NW 7.0 mph 14.0 mph 97 % 0.02 in 18 W/m2
06:41 51.6 °F 50.8 °F 29.31 in NW 8.0 mph 14.0 mph 97 % 0.02 in 19 W/m2
06:46 51.8 °F 51.0 °F 29.31 in NW 8.0 mph 13.0 mph 97 % 0.01 in 19 W/m2
06:51 51.6 °F 50.8 °F 29.31 in NW 8.0 mph 14.0 mph 97 % 0.01 in 18 W/m2
06:56 51.8 °F 51.0 °F 29.31 in NW 7.0 mph 14.0 mph 97 % 0.02 in 19 W/m2
07:01 51.8 °F 51.0 °F 29.31 in NW 7.0 mph 15.0 mph 97 % 0.02 in 18 W/m2
07:06 51.8 °F 51.0 °F 29.31 in NW 8.0 mph 15.0 mph 97 % 0.02 in 16 W/m2
07:11 51.8 °F 51.0 °F 29.31 in NW 7.0 mph 15.0 mph 97 % 0.02 in 14 W/m2
07:16 51.8 °F 51.0 °F 29.31 in NW 7.0 mph 14.0 mph 97 % 0.02 in 12 W/m2
07:21 51.8 °F 51.0 °F 29.31 in NW 8.0 mph 14.0 mph 97 % 0.02 in 12 W/m2
07:26 52.0 °F 51.2 °F 29.31 in NW 8.0 mph 13.0 mph 97 % 0.02 in 12 W/m2
07:31 52.0 °F 51.2 °F 29.31 in NW 8.0 mph 13.0 mph 97 % 0.02 in 14 W/m2
07:36 52.0 °F 51.2 °F 29.31 in NW 7.0 mph 12.0 mph 97 % 0.02 in 14 W/m2
07:41 52.0 °F 51.2 °F 29.31 in NW 5.0 mph 12.0 mph 97 % 0.02 in 14 W/m2
07:46 52.0 °F 51.2 °F 29.31 in NW 6.0 mph 14.0 mph 97 % 0.02 in 14 W/m2
07:51 52.2 °F 51.3 °F 29.31 in NW 7.0 mph 14.0 mph 97 % 0.02 in 18 W/m2
07:57 52.2 °F 51.3 °F 29.31 in NW 7.0 mph 12.0 mph 97 % 0.02 in 21 W/m2
08:02 52.2 °F 51.3 °F 29.31 in NW 7.0 mph 11.0 mph 97 % 0.02 in 23 W/m2
08:07 52.2 °F 51.3 °F 29.31 in NW 6.0 mph 12.0 mph 97 % 0.01 in 23 W/m2
08:12 52.3 °F 51.5 °F 29.31 in NW 5.0 mph 12.0 mph 97 % 0.00 in 25 W/m2
08:17 52.3 °F 51.5 °F 29.31 in NW 6.0 mph 14.0 mph 97 % 0.00 in 23 W/m2
08:22 52.3 °F 51.5 °F 29.31 in NW 6.0 mph 14.0 mph 97 % 0.00 in 25 W/m2
08:27 52.5 °F 51.7 °F 29.31 in NW 6.0 mph 12.0 mph 97 % 0.00 in 26 W/m2
08:29 52.5 °F 51.7 °F 29.31 in NW 6.0 mph 12.0 mph 97 % 0.00 in 26 W/m2
08:34 52.5 °F 51.7 °F 29.31 in NW 7.0 mph 12.0 mph 97 % 0.00 in 35 W/m2
08:39 52.7 °F 51.9 °F 29.31 in NW 7.0 mph 12.0 mph 97 % 0.00 in 47 W/m2
08:44 52.9 °F 52.1 °F 29.31 in NW 7.0 mph 16.0 mph 97 % 0.00 in 54 W/m2
08:49 52.9 °F 52.1 °F 29.31 in NW 7.0 mph 16.0 mph 97 % 0.00 in 60 W/m2
08:54 53.1 °F 52.2 °F 29.31 in NW 6.0 mph 14.0 mph 97 % 0.00 in 63 W/m2
08:59 53.1 °F 52.2 °F 29.31 in NW 7.0 mph 13.0 mph 97 % 0.00 in 62 W/m2
09:04 53.1 °F 52.2 °F 29.31 in NW 8.0 mph 14.0 mph 97 % 0.00 in 77 W/m2
09:09 53.2 °F 52.4 °F 29.31 in NW 8.0 mph 14.0 mph 97 % 0.00 in 95 W/m2
09:14 53.4 °F 52.6 °F 29.31 in NW 7.0 mph 13.0 mph 97 % 0.00 in 86 W/m2
09:19 53.4 °F 52.6 °F 29.31 in NW 7.0 mph 15.0 mph 97 % 0.00 in 91 W/m2
09:24 53.6 °F 52.8 °F 29.31 in NW 8.0 mph 15.0 mph 97 % 0.01 in 93 W/m2
09:29 53.8 °F 52.9 °F 29.31 in NW 7.0 mph 15.0 mph 97 % 0.01 in 98 W/m2
09:34 53.8 °F 52.9 °F 29.31 in NW 7.0 mph 19.0 mph 97 % 0.01 in 88 W/m2
09:39 53.8 °F 52.9 °F 29.31 in NW 7.0 mph 19.0 mph 97 % 0.02 in 91 W/m2
09:44 54.0 °F 53.1 °F 29.31 in NW 7.0 mph 12.0 mph 97 % 0.02 in 102 W/m2
09:49 54.0 °F 53.1 °F 29.31 in NW 7.0 mph 16.0 mph 97 % 0.02 in 95 W/m2
09:54 54.0 °F 53.1 °F 29.31 in NW 7.0 mph 16.0 mph 97 % 0.02 in 81 W/m2
09:59 54.0 °F 53.1 °F 29.31 in NW 7.0 mph 14.0 mph 97 % 0.02 in 83 W/m2
10:04 54.1 °F 53.3 °F 29.31 in NW 6.0 mph 14.0 mph 97 % 0.02 in 76 W/m2
10:09 54.1 °F 53.3 °F 29.32 in NW 5.0 mph 14.0 mph 97 % 0.02 in 72 W/m2
10:14 54.1 °F 53.3 °F 29.32 in NW 6.0 mph 12.0 mph 97 % 0.02 in 69 W/m2
10:20 54.1 °F 53.3 °F 29.32 in NW 6.0 mph 12.0 mph 97 % 0.02 in 69 W/m2
10:25 54.3 °F 53.5 °F 29.32 in NW 6.0 mph 12.0 mph 97 % 0.01 in 70 W/m2
10:30 54.3 °F 53.5 °F 29.32 in NW 5.0 mph 12.0 mph 97 % 0.01 in 56 W/m2
10:35 54.3 °F 53.5 °F 29.32 in NW 6.0 mph 13.0 mph 97 % 0.00 in 46 W/m2
10:40 54.3 °F 53.5 °F 29.32 in NW 5.0 mph 13.0 mph 97 % 0.00 in 49 W/m2
10:45 54.3 °F 53.5 °F 29.32 in NW 4.0 mph 9.0 mph 97 % 0.00 in 54 W/m2
10:50 54.3 °F 53.5 °F 29.33 in NW 4.0 mph 12.0 mph 97 % 0.00 in 58 W/m2
10:55 54.5 °F 53.7 °F 29.32 in NW 4.0 mph 12.0 mph 97 % 0.00 in 72 W/m2
11:00 54.5 °F 53.7 °F 29.33 in NW 4.0 mph 9.0 mph 97 % 0.00 in 65 W/m2
11:04 54.7 °F 53.8 °F 29.33 in NW 4.0 mph 10.0 mph 97 % 0.00 in 62 W/m2
11:09 54.7 °F 53.8 °F 29.33 in NW 4.0 mph 10.0 mph 97 % 0.00 in 69 W/m2
11:14 54.7 °F 53.8 °F 29.33 in NW 4.0 mph 10.0 mph 97 % 0.00 in 65 W/m2
11:19 54.9 °F 54.0 °F 29.33 in NW 4.0 mph 10.0 mph 97 % 0.00 in 63 W/m2
11:24 54.9 °F 54.0 °F 29.33 in NW 5.0 mph 9.0 mph 97 % 0.00 in 69 W/m2
11:29 54.9 °F 54.0 °F 29.33 in NW 4.0 mph 10.0 mph 97 % 0.00 in 76 W/m2
11:34 55.0 °F 54.2 °F 29.33 in NW 4.0 mph 10.0 mph 97 % 0.00 in 84 W/m2
11:39 55.0 °F 54.2 °F 29.33 in NW 4.0 mph 7.0 mph 97 % 0.00 in 76 W/m2
11:44 55.2 °F 54.4 °F 29.33 in NW 5.0 mph 11.0 mph 97 % 0.00 in 72 W/m2
11:49 55.2 °F 54.4 °F 29.33 in NW 5.0 mph 11.0 mph 97 % 0.00 in 72 W/m2
11:54 55.2 °F 54.4 °F 29.33 in NW 5.0 mph 8.0 mph 97 % 0.00 in 60 W/m2
11:59 55.4 °F 54.6 °F 29.34 in NW 4.0 mph 8.0 mph 97 % 0.00 in 58 W/m2
12:04 55.6 °F 54.7 °F 29.34 in NW 4.0 mph 8.0 mph 97 % 0.00 in 63 W/m2
12:09 55.6 °F 54.7 °F 29.34 in NW 3.0 mph 8.0 mph 97 % 0.00 in 62 W/m2
12:10 55.6 °F 54.7 °F 29.34 in NW 3.0 mph 8.0 mph 97 % 0.00 in 62 W/m2
12:15 55.6 °F 54.7 °F 29.34 in NW 4.0 mph 10.0 mph 97 % 0.00 in 67 W/m2
12:20 55.6 °F 54.7 °F 29.34 in WNW 4.0 mph 10.0 mph 97 % 0.00 in 72 W/m2
12:25 55.8 °F 54.9 °F 29.34 in NW 3.0 mph 7.0 mph 97 % 0.00 in 65 W/m2
12:30 55.8 °F 54.9 °F 29.34 in NW 3.0 mph 10.0 mph 97 % 0.00 in 58 W/m2
12:35 55.8 °F 54.9 °F 29.34 in NW 4.0 mph 10.0 mph 97 % 0.00 in 65 W/m2
12:40 55.8 °F 54.9 °F 29.34 in NW 5.0 mph 9.0 mph 97 % 0.00 in 65 W/m2
12:45 55.9 °F 55.1 °F 29.34 in NW 4.0 mph 9.0 mph 97 % 0.00 in 65 W/m2
12:50 55.9 °F 55.1 °F 29.34 in NW 4.0 mph 10.0 mph 97 % 0.00 in 60 W/m2
12:56 55.9 °F 55.1 °F 29.34 in NW 4.0 mph 10.0 mph 97 % 0.00 in 67 W/m2
13:01 56.1 °F 55.3 °F 29.35 in WNW 4.0 mph 10.0 mph 97 % 0.00 in 63 W/m2
13:06 56.1 °F 55.3 °F 29.35 in WNW 4.0 mph 10.0 mph 97 % 0.00 in 63 W/m2
13:16 56.1 °F 55.3 °F 29.35 in WNW 5.0 mph 9.0 mph 97 % 0.00 in 70 W/m2
13:21 56.1 °F 55.3 °F 29.35 in WNW 6.0 mph 10.0 mph 97 % 0.00 in 77 W/m2
13:26 56.1 °F 55.3 °F 29.35 in WNW 5.0 mph 10.0 mph 97 % 0.00 in 79 W/m2
13:31 56.3 °F 55.2 °F 29.35 in WNW 5.0 mph 10.0 mph 96 % 0.00 in 90 W/m2
13:36 56.3 °F 55.2 °F 29.35 in WNW 5.0 mph 10.0 mph 96 % 0.00 in 90 W/m2
13:41 56.5 °F 55.4 °F 29.36 in WNW 5.0 mph 9.0 mph 96 % 0.00 in 109 W/m2
13:46 56.5 °F 55.4 °F 29.35 in WNW 6.0 mph 9.0 mph 96 % 0.00 in 132 W/m2
13:51 56.5 °F 55.4 °F 29.35 in WNW 6.0 mph 11.0 mph 96 % 0.00 in 113 W/m2
13:56 56.7 °F 55.5 °F 29.36 in WNW 6.0 mph 11.0 mph 96 % 0.00 in 127 W/m2
14:01 56.8 °F 55.7 °F 29.36 in WNW 6.0 mph 11.0 mph 96 % 0.00 in 120 W/m2
14:06 56.8 °F 55.7 °F 29.36 in WNW 6.0 mph 11.0 mph 96 % 0.00 in 114 W/m2
14:11 56.8 °F 55.7 °F 29.36 in WNW 6.0 mph 10.0 mph 96 % 0.00 in 111 W/m2
14:16 57.0 °F 55.6 °F 29.36 in WNW 6.0 mph 12.0 mph 95 % 0.00 in 109 W/m2
14:21 57.0 °F 55.6 °F 29.36 in WNW 5.0 mph 12.0 mph 95 % 0.00 in 105 W/m2
14:26 57.2 °F 55.8 °F 29.36 in WNW 5.0 mph 8.0 mph 95 % 0.00 in 125 W/m2
14:29 57.2 °F 55.8 °F 29.36 in NW 5.0 mph 8.0 mph 95 % 0.00 in 125 W/m2
14:34 57.4 °F 56.0 °F 29.36 in NW 5.0 mph 8.0 mph 95 % 0.00 in 127 W/m2
14:39 57.4 °F 56.0 °F 29.36 in WNW 6.0 mph 12.0 mph 95 % 0.00 in 141 W/m2
14:44 57.6 °F 55.8 °F 29.37 in WNW 5.0 mph 12.0 mph 94 % 0.00 in 134 W/m2
14:49 57.6 °F 55.8 °F 29.37 in WNW 6.0 mph 12.0 mph 94 % 0.00 in 181 W/m2
14:54 57.7 °F 56.0 °F 29.37 in WNW 7.0 mph 12.0 mph 94 % 0.00 in 178 W/m2
14:59 57.9 °F 56.2 °F 29.37 in WNW 6.0 mph 10.0 mph 94 % 0.00 in 186 W/m2
15:04 58.3 °F 56.6 °F 29.36 in WNW 6.0 mph 10.0 mph 94 % 0.00 in 200 W/m2
15:09 58.5 °F 56.4 °F 29.37 in WNW 6.0 mph 10.0 mph 93 % 0.00 in 183 W/m2
15:14 58.6 °F 56.6 °F 29.37 in WNW 7.0 mph 10.0 mph 93 % 0.00 in 144 W/m2
15:19 58.6 °F 56.3 °F 29.37 in WNW 7.0 mph 12.0 mph 92 % 0.00 in 158 W/m2
15:24 58.6 °F 56.3 °F 29.37 in WNW 7.0 mph 12.0 mph 92 % 0.00 in 116 W/m2
15:29 58.6 °F 56.3 °F 29.37 in WNW 7.0 mph 12.0 mph 92 % 0.00 in 118 W/m2
15:34 58.6 °F 56.3 °F 29.37 in WNW 6.0 mph 12.0 mph 92 % 0.00 in 111 W/m2
15:39 58.6 °F 56.3 °F 29.37 in WNW 6.0 mph 10.0 mph 92 % 0.00 in 111 W/m2
15:44 58.6 °F 56.3 °F 29.37 in WNW 5.0 mph 8.0 mph 92 % 0.00 in 111 W/m2
15:49 58.8 °F 56.2 °F 29.37 in NW 5.0 mph 9.0 mph 91 % 0.00 in 123 W/m2
15:54 58.8 °F 56.5 °F 29.37 in WNW 5.0 mph 9.0 mph 92 % 0.00 in 186 W/m2
16:00 59.2 °F 56.9 °F 29.37 in NW 5.0 mph 10.0 mph 92 % 0.00 in 167 W/m2
16:05 59.2 °F 56.6 °F 29.37 in WNW 6.0 mph 11.0 mph 91 % 0.00 in 142 W/m2
16:10 59.4 °F 56.7 °F 29.37 in WNW 6.0 mph 11.0 mph 91 % 0.00 in 214 W/m2
16:15 59.5 °F 56.9 °F 29.37 in NW 5.0 mph 9.0 mph 91 % 0.00 in 214 W/m2
16:20 59.7 °F 57.1 °F 29.37 in NW 5.0 mph 9.0 mph 91 % 0.00 in 186 W/m2
16:25 59.9 °F 57.3 °F 29.37 in NW 4.0 mph 9.0 mph 91 % 0.00 in 186 W/m2
16:30 60.1 °F 57.1 °F 29.37 in NW 4.0 mph 9.0 mph 90 % 0.00 in 83 W/m2
16:35 60.3 °F 57.0 °F 29.37 in NW 4.0 mph 9.0 mph 89 % 0.00 in 62 W/m2
16:40 60.3 °F 57.0 °F 29.37 in NW 4.0 mph 9.0 mph 89 % 0.00 in 86 W/m2
16:41 60.3 °F 57.0 °F 29.37 in NW 4.0 mph 9.0 mph 89 % 0.00 in 100 W/m2
16:46 60.1 °F 56.8 °F 29.37 in WNW 5.0 mph 9.0 mph 89 % 0.00 in 220 W/m2
16:51 60.3 °F 57.0 °F 29.37 in WNW 6.0 mph 11.0 mph 89 % 0.00 in 148 W/m2
16:56 60.3 °F 57.0 °F 29.37 in WNW 6.0 mph 11.0 mph 89 % 0.00 in 100 W/m2
17:01 60.3 °F 56.7 °F 29.38 in WNW 6.0 mph 10.0 mph 88 % 0.00 in 76 W/m2
17:06 60.3 °F 56.7 °F 29.38 in NW 5.0 mph 9.0 mph 88 % 0.00 in 65 W/m2
17:11 60.3 °F 56.7 °F 29.38 in NW 5.0 mph 9.0 mph 88 % 0.00 in 60 W/m2
17:16 60.1 °F 56.5 °F 29.38 in NW 5.0 mph 9.0 mph 88 % 0.00 in 53 W/m2
17:21 60.1 °F 56.5 °F 29.38 in NW 5.0 mph 9.0 mph 88 % 0.00 in 42 W/m2
17:26 59.9 °F 56.3 °F 29.38 in NW 5.0 mph 11.0 mph 88 % 0.00 in 44 W/m2
17:31 59.7 °F 56.2 °F 29.38 in NW 4.0 mph 11.0 mph 88 % 0.00 in 58 W/m2
17:37 59.7 °F 56.5 °F 29.38 in NW 3.0 mph 7.0 mph 89 % 0.00 in 53 W/m2
17:42 59.7 °F 56.5 °F 29.38 in NW 3.0 mph 8.0 mph 89 % 0.00 in 53 W/m2
17:47 59.7 °F 56.5 °F 29.38 in NW 3.0 mph 8.0 mph 89 % 0.00 in 44 W/m2
17:52 59.7 °F 56.5 °F 29.38 in NW 3.0 mph 6.0 mph 89 % 0.00 in 46 W/m2
17:57 59.7 °F 56.5 °F 29.39 in WNW 2.0 mph 6.0 mph 89 % 0.00 in 32 W/m2
18:02 59.7 °F 56.5 °F 29.39 in NW 3.0 mph 6.0 mph 89 % 0.00 in 30 W/m2
18:07 59.7 °F 56.5 °F 29.39 in NW 2.0 mph 6.0 mph 89 % 0.00 in 37 W/m2
18:08 59.5 °F 56.3 °F 29.39 in NNW 2.0 mph 6.0 mph 89 % 0.00 in 37 W/m2
18:13 59.5 °F 56.3 °F 29.39 in NW 2.0 mph 6.0 mph 89 % 0.00 in 49 W/m2
18:18 59.5 °F 56.3 °F 29.39 in NW 3.0 mph 7.0 mph 89 % 0.00 in 40 W/m2
18:23 59.5 °F 56.3 °F 29.39 in NW 2.0 mph 7.0 mph 89 % 0.00 in 49 W/m2
18:28 59.5 °F 56.3 °F 29.39 in NW 2.0 mph 6.0 mph 89 % 0.00 in 72 W/m2
18:33 59.7 °F 56.5 °F 29.40 in NW 2.0 mph 7.0 mph 89 % 0.00 in 109 W/m2
18:38 59.7 °F 56.5 °F 29.40 in NW 3.0 mph 8.0 mph 89 % 0.00 in 84 W/m2
18:43 59.9 °F 56.6 °F 29.40 in WNW 3.0 mph 8.0 mph 89 % 0.00 in 70 W/m2
18:48 60.1 °F 56.5 °F 29.40 in NW 2.0 mph 7.0 mph 88 % 0.00 in 70 W/m2
18:53 60.1 °F 56.5 °F 29.40 in NW 4.0 mph 11.0 mph 88 % 0.00 in 56 W/m2
18:58 60.1 °F 56.5 °F 29.40 in WNW 4.0 mph 11.0 mph 88 % 0.00 in 47 W/m2
19:03 60.1 °F 56.5 °F 29.40 in WNW 4.0 mph 8.0 mph 88 % 0.00 in 37 W/m2
19:08 60.1 °F 56.5 °F 29.40 in WNW 3.0 mph 7.0 mph 88 % 0.00 in 32 W/m2
19:13 60.1 °F 56.5 °F 29.40 in WNW 3.0 mph 7.0 mph 88 % 0.00 in 30 W/m2
19:18 60.1 °F 56.5 °F 29.40 in WNW 2.0 mph 6.0 mph 88 % 0.00 in 28 W/m2
19:24 60.1 °F 56.5 °F 29.41 in WNW 2.0 mph 5.0 mph 88 % 0.00 in 26 W/m2
19:28 60.1 °F 56.5 °F 29.41 in NW 1.0 mph 5.0 mph 88 % 0.00 in 30 W/m2
19:33 59.9 °F 56.3 °F 29.41 in NW 1.0 mph 5.0 mph 88 % 0.00 in 32 W/m2
19:38 59.9 °F 56.6 °F 29.41 in NW 1.0 mph 4.0 mph 89 % 0.00 in 35 W/m2
19:44 59.7 °F 56.5 °F 29.41 in NW 2.0 mph 5.0 mph 89 % 0.00 in 35 W/m2
19:49 59.7 °F 56.5 °F 29.41 in NW 2.0 mph 5.0 mph 89 % 0.00 in 33 W/m2
19:54 59.7 °F 56.5 °F 29.41 in NW 2.0 mph 5.0 mph 89 % 0.00 in 35 W/m2
19:59 59.7 °F 56.5 °F 29.42 in NW 2.0 mph 5.0 mph 89 % 0.00 in 39 W/m2
20:04 59.7 °F 56.5 °F 29.42 in NW 1.0 mph 4.0 mph 89 % 0.00 in 39 W/m2
20:09 59.7 °F 56.5 °F 29.42 in NW 1.0 mph 4.0 mph 89 % 0.00 in 40 W/m2
20:14 59.7 °F 56.8 °F 29.42 in NW 1.0 mph 3.0 mph 90 % 0.00 in 30 W/m2
20:19 59.7 °F 56.8 °F 29.42 in NW 1.0 mph 3.0 mph 90 % 0.00 in 21 W/m2
20:24 59.7 °F 56.8 °F 29.42 in Calm   2.0 mph 90 % 0.00 in 16 W/m2
20:29 59.7 °F 56.5 °F 29.42 in Calm   2.0 mph 89 % 0.00 in 14 W/m2
20:34 59.5 °F 56.6 °F 29.42 in Calm   1.0 mph 90 % 0.00 in 16 W/m2
20:39 59.5 °F 56.6 °F 29.42 in Calm   1.0 mph 90 % 0.00 in 16 W/m2
20:44 59.5 °F 56.6 °F 29.42 in Calm   2.0 mph 90 % 0.00 in 16 W/m2
20:49 59.5 °F 56.6 °F 29.43 in Calm   2.0 mph 90 % 0.00 in 14 W/m2
20:54 59.5 °F 56.6 °F 29.43 in Calm   1.0 mph 90 % 0.00 in 12 W/m2
20:59 59.4 °F 56.4 °F 29.43 in Calm   1.0 mph 90 % 0.00 in 11 W/m2
21:04 59.4 °F 56.4 °F 29.43 in Calm   1.0 mph 90 % 0.00 in 7 W/m2
21:09 59.4 °F 56.4 °F 29.43 in Calm   1.0 mph 90 % 0.00 in 7 W/m2
21:14 59.4 °F 56.4 °F 29.43 in Calm     90 % 0.00 in 5 W/m2
21:19 59.2 °F 56.6 °F 29.43 in Calm   2.0 mph 91 % 0.00 in 0 W/m2
21:24 59.2 °F 56.6 °F 29.44 in Calm   2.0 mph 91 % 0.00 in 0 W/m2
21:29 59.2 °F 56.6 °F 29.44 in Calm   2.0 mph 91 % 0.00 in 0 W/m2
21:34 59.0 °F 56.4 °F 29.44 in Calm   1.0 mph 91 % 0.00 in 0 W/m2
21:39 58.8 °F 56.2 °F 29.44 in Calm   1.0 mph 91 % 0.00 in 0 W/m2
21:45 58.8 °F 56.2 °F 29.44 in Calm     91 % 0.00 in 0 W/m2
21:50 58.8 °F 56.2 °F 29.44 in Calm   1.0 mph 91 % 0.00 in 0 W/m2
21:55 58.6 °F 56.0 °F 29.44 in Calm   4.0 mph 91 % 0.00 in 0 W/m2
22:00 58.6 °F 56.0 °F 29.44 in Calm   4.0 mph 91 % 0.00 in 0 W/m2
22:05 58.5 °F 55.8 °F 29.45 in Calm   2.0 mph 91 % 0.00 in 0 W/m2
22:10 58.5 °F 56.1 °F 29.45 in Calm   2.0 mph 92 % 0.00 in 0 W/m2
22:15 58.3 °F 56.0 °F 29.45 in Calm   2.0 mph 92 % 0.00 in 0 W/m2
22:20 58.3 °F 56.0 °F 29.45 in Calm   1.0 mph 92 % 0.00 in 0 W/m2
22:25 58.3 °F 56.0 °F 29.45 in Calm   4.0 mph 92 % 0.00 in 0 W/m2
22:30 58.1 °F 55.8 °F 29.45 in West 1.0 mph 6.0 mph 92 % 0.00 in 0 W/m2
22:35 57.9 °F 55.6 °F 29.45 in WNW 3.0 mph 7.0 mph 92 % 0.00 in 0 W/m2
22:40 57.9 °F 55.6 °F 29.45 in WNW 4.0 mph 7.0 mph 92 % 0.00 in 0 W/m2
22:45 57.7 °F 55.4 °F 29.46 in WNW 4.0 mph 7.0 mph 92 % 0.00 in 0 W/m2
22:50 57.7 °F 55.4 °F 29.46 in WNW 3.0 mph 7.0 mph 92 % 0.00 in 0 W/m2
22:55 57.7 °F 55.4 °F 29.46 in WNW 2.0 mph 5.0 mph 92 % 0.00 in 0 W/m2
23:00 57.7 °F 55.4 °F 29.46 in WNW 2.0 mph 5.0 mph 92 % 0.00 in 0 W/m2
23:05 57.7 °F 55.4 °F 29.46 in WNW 2.0 mph 5.0 mph 92 % 0.00 in 0 W/m2
23:10 57.7 °F 55.4 °F 29.46 in WNW 2.0 mph 5.0 mph 92 % 0.00 in 0 W/m2
23:16 57.6 °F 55.3 °F 29.46 in WNW 3.0 mph 6.0 mph 92 % 0.00 in 0 W/m2
23:21 57.6 °F 55.3 °F 29.46 in WNW 3.0 mph 7.0 mph 92 % 0.00 in 0 W/m2
23:26 57.6 °F 55.3 °F 29.47 in WNW 4.0 mph 8.0 mph 92 % 0.00 in 0 W/m2
23:31 57.4 °F 55.1 °F 29.47 in WNW 4.0 mph 9.0 mph 92 % 0.00 in 0 W/m2
23:36 57.4 °F 55.1 °F 29.47 in WNW 5.0 mph 9.0 mph 92 % 0.00 in 0 W/m2
23:41 57.4 °F 55.1 °F 29.47 in WNW 5.0 mph 9.0 mph 92 % 0.00 in 0 W/m2
23:46 57.4 °F 55.1 °F 29.47 in WNW 5.0 mph 10.0 mph 92 % 0.00 in 0 W/m2
23:51 57.4 °F 55.1 °F 29.47 in WNW 6.0 mph 10.0 mph 92 % 0.00 in 0 W/m2
23:56 57.2 °F 54.9 °F 29.47 in WNW 6.0 mph 10.0 mph 92 % 0.00 in 0 W/m2
Delerius-Weather
Compliments of Weather Underground - 2.25 mb

Data updates at regular intervals.